createdAt,value
2023-04-17T00:01:10.917Z,3.10
2023-04-17T00:03:38.269Z,3.78
2023-04-17T00:06:06.424Z,3.70
2023-04-17T00:08:34.118Z,3.03
2023-04-17T00:11:07.864Z,3.28
2023-04-17T00:13:36.965Z,3.83
2023-04-17T00:16:04.498Z,3.30
2023-04-17T00:18:31.952Z,3.90
2023-04-17T00:20:59.379Z,3.47
2023-04-17T00:23:26.623Z,3.85
2023-04-17T00:25:54.056Z,3.00
2023-04-17T00:28:21.380Z,3.10
2023-04-17T00:30:48.644Z,3.75
2023-04-17T00:33:16.188Z,2.95
2023-04-17T00:35:43.496Z,3.17
2023-04-17T00:38:10.908Z,4.03
2023-04-17T00:40:38.241Z,3.30
2023-04-17T00:43:07.019Z,3.47
2023-04-17T00:45:35.543Z,2.88
2023-04-17T00:48:04.999Z,3.63
2023-04-17T00:50:33.196Z,3.38
2023-04-17T00:53:01.335Z,3.22
2023-04-17T00:55:31.354Z,2.97
2023-04-17T00:57:58.700Z,2.75
2023-04-17T01:00:26.338Z,3.08
2023-04-17T01:02:56.618Z,3.13
2023-04-17T01:05:25.709Z,3.10
2023-04-17T01:07:54.048Z,3.15
2023-04-17T01:10:21.563Z,2.90
2023-04-17T01:13:04.659Z,3.03
2023-04-17T01:15:34.073Z,3.55
2023-04-17T01:18:01.866Z,2.70
2023-04-17T01:20:30.235Z,3.22
2023-04-17T01:23:01.384Z,3.08
2023-04-17T01:25:28.892Z,3.50
2023-04-17T01:27:56.942Z,2.55
2023-04-17T01:30:24.739Z,2.60
2023-04-17T01:33:00.218Z,2.78
2023-04-17T01:35:27.520Z,2.92
2023-04-17T01:37:55.833Z,2.45
2023-04-17T01:40:23.493Z,2.63
2023-04-17T01:42:50.922Z,2.28
2023-04-17T01:45:18.435Z,2.83
2023-04-17T01:47:46.015Z,2.83
2023-04-17T01:50:13.592Z,3.10
2023-04-17T01:52:41.067Z,2.42
2023-04-17T01:55:09.434Z,2.75
2023-04-17T01:57:37.259Z,3.08
2023-04-17T02:00:08.403Z,2.80
2023-04-17T02:02:40.078Z,2.47
2023-04-17T02:05:08.061Z,2.90
2023-04-17T02:07:35.481Z,2.65
2023-04-17T02:10:02.996Z,2.30
2023-04-17T02:12:30.411Z,2.42
2023-04-17T02:15:01.335Z,2.55
2023-04-17T02:17:28.939Z,2.92
2023-04-17T02:19:56.545Z,2.40
2023-04-17T02:22:23.873Z,2.25
2023-04-17T02:24:52.159Z,2.95
2023-04-17T02:27:20.393Z,2.60
2023-04-17T02:29:47.757Z,3.20
2023-04-17T02:32:16.751Z,2.80
2023-04-17T02:34:45.401Z,2.13
2023-04-17T02:37:15.919Z,2.33
2023-04-17T02:39:43.288Z,2.90
2023-04-17T02:42:13.094Z,2.60
2023-04-17T02:44:42.027Z,2.75
2023-04-17T02:47:09.300Z,2.42
2023-04-17T02:49:36.824Z,3.35
2023-04-17T02:52:04.912Z,3.03
2023-04-17T02:54:32.254Z,2.80
2023-04-17T02:56:59.625Z,3.25
2023-04-17T02:59:28.011Z,2.90
2023-04-17T03:01:55.532Z,2.50
2023-04-17T03:04:23.099Z,3.22
2023-04-17T03:06:51.489Z,2.60
2023-04-17T03:09:22.330Z,3.25
2023-04-17T03:11:49.822Z,3.15
2023-04-17T03:14:17.144Z,3.53
2023-04-17T03:16:44.466Z,3.15
2023-04-17T03:19:12.111Z,2.83
2023-04-17T03:21:39.761Z,3.05
2023-04-17T03:24:07.189Z,2.58
2023-04-17T03:26:34.620Z,3.08
2023-04-17T03:29:06.993Z,2.83
2023-04-17T03:31:35.462Z,3.83
2023-04-17T03:34:02.832Z,3.03
2023-04-17T03:36:30.221Z,2.97
2023-04-17T03:38:58.266Z,3.50
2023-04-17T03:41:25.857Z,3.28
2023-04-17T03:43:53.991Z,3.90
2023-04-17T03:46:21.910Z,3.53
2023-04-17T03:48:49.327Z,3.70
2023-04-17T03:51:17.261Z,4.00
2023-04-17T03:53:44.569Z,4.32
2023-04-17T03:56:13.949Z,5.40
2023-04-17T03:58:44.430Z,3.67
2023-04-17T04:01:15.330Z,4.13
2023-04-17T04:04:00.536Z,5.93
2023-04-17T04:06:29.992Z,5.47
2023-04-17T04:08:57.980Z,4.78
2023-04-17T04:11:25.351Z,6.60
2023-04-17T04:13:52.922Z,5.47
2023-04-17T04:16:20.363Z,5.63
2023-04-17T04:18:49.379Z,5.22
2023-04-17T04:21:18.629Z,5.82
2023-04-17T04:23:46.018Z,6.38
2023-04-17T04:26:17.004Z,6.70
2023-04-17T04:28:50.134Z,6.70
2023-04-17T04:31:31.987Z,6.43
2023-04-17T04:34:02.905Z,6.65
2023-04-17T04:36:31.086Z,5.70
2023-04-17T04:39:17.917Z,7.13
2023-04-17T04:41:45.905Z,5.95
2023-04-17T04:44:14.239Z,6.82
2023-04-17T04:46:43.069Z,6.63
2023-04-17T04:49:12.352Z,6.32
2023-04-17T04:51:40.429Z,5.95
2023-04-17T04:54:09.301Z,7.53
2023-04-17T04:56:45.067Z,5.68
2023-04-17T04:59:14.545Z,6.57
2023-04-17T05:01:47.739Z,7.63
2023-04-17T05:04:18.519Z,7.60
2023-04-17T05:06:48.880Z,5.03
2023-04-17T05:09:17.443Z,6.13
2023-04-17T05:11:46.651Z,5.72
2023-04-17T05:14:14.278Z,5.97
2023-04-17T05:16:43.428Z,5.78
2023-04-17T05:19:12.065Z,5.00
2023-04-17T05:21:59.906Z,5.53
2023-04-17T05:24:27.903Z,5.03
2023-04-17T05:26:57.120Z,5.30
2023-04-17T05:29:25.166Z,5.68
2023-04-17T05:31:54.350Z,5.82
2023-04-17T05:34:40.946Z,3.95
2023-04-17T05:37:09.667Z,4.38
2023-04-17T05:39:48.962Z,4.03
2023-04-17T05:42:17.200Z,4.47
2023-04-17T05:44:44.934Z,3.95
2023-04-17T05:47:12.550Z,3.95
2023-04-17T05:49:40.134Z,4.05
2023-04-17T05:52:07.586Z,3.33
2023-04-17T05:54:39.786Z,3.78
2023-04-17T05:57:09.401Z,3.42
2023-04-17T05:59:37.073Z,3.67
2023-04-17T06:02:04.803Z,3.80
2023-04-17T06:04:33.980Z,3.72
2023-04-17T06:07:02.950Z,3.65
2023-04-17T06:09:30.545Z,3.22
2023-04-17T06:11:59.248Z,3.65
2023-04-17T06:14:27.323Z,2.95
2023-04-17T06:16:54.841Z,4.10
2023-04-17T06:19:23.323Z,3.15
2023-04-17T06:21:51.255Z,3.08
2023-04-17T06:24:20.334Z,3.08
2023-04-17T06:26:48.547Z,2.67
2023-04-17T06:29:16.671Z,2.78
2023-04-17T06:31:45.347Z,2.58
2023-04-17T06:34:15.447Z,2.15
2023-04-17T06:36:45.808Z,2.05
2023-04-17T06:39:15.909Z,1.35
2023-04-17T06:41:43.681Z,2.15
2023-04-17T06:44:13.161Z,2.08
2023-04-17T06:46:54.143Z,1.85
2023-04-17T06:49:21.744Z,1.80
2023-04-17T06:51:49.609Z,1.92
2023-04-17T06:54:17.701Z,2.05
2023-04-17T06:56:45.253Z,1.80
2023-04-17T06:59:13.117Z,1.90
2023-04-17T07:01:41.042Z,2.10
2023-04-17T07:04:09.542Z,2.05
2023-04-17T07:06:39.430Z,1.92
2023-04-17T07:09:06.908Z,2.35
2023-04-17T07:11:38.537Z,2.10
2023-04-17T07:14:06.314Z,2.08
2023-04-17T07:16:34.012Z,1.90
2023-04-17T07:19:01.488Z,2.30
2023-04-17T07:21:28.853Z,2.10
2023-04-17T07:23:56.246Z,1.88
2023-04-17T07:26:24.082Z,2.10
2023-04-17T07:28:51.909Z,1.80
2023-04-17T07:31:19.881Z,1.83
2023-04-17T07:33:47.666Z,1.40
2023-04-17T07:36:16.514Z,1.50
2023-04-17T07:38:43.862Z,1.50
2023-04-17T07:41:12.309Z,1.40
2023-04-17T07:43:40.330Z,3.63
2023-04-17T07:46:07.956Z,1.70
2023-04-17T07:48:35.577Z,1.55
2023-04-17T07:51:03.113Z,1.17
2023-04-17T07:53:30.856Z,0.98
2023-04-17T07:55:58.889Z,1.42
2023-04-17T07:58:27.139Z,1.23
2023-04-17T08:00:54.871Z,1.00
2023-04-17T08:03:24.509Z,1.35
2023-04-17T08:05:52.274Z,1.58
2023-04-17T08:08:19.994Z,1.60
2023-04-17T08:10:47.527Z,6.60
2023-04-17T08:13:14.993Z,1.20
2023-04-17T08:15:42.451Z,1.75
2023-04-17T08:18:10.704Z,1.40
2023-04-17T08:20:38.347Z,1.20
2023-04-17T08:23:06.103Z,1.20
2023-04-17T08:25:33.861Z,1.38
2023-04-17T08:28:01.342Z,1.05
2023-04-17T08:30:28.967Z,1.17
2023-04-17T08:32:57.456Z,1.08
2023-04-17T08:35:26.724Z,1.20
2023-04-17T08:37:56.798Z,1.10
2023-04-17T08:40:26.170Z,1.10
2023-04-17T08:42:54.763Z,1.00
2023-04-17T08:45:26.655Z,0.70
2023-04-17T08:47:54.415Z,0.77
2023-04-17T08:50:22.279Z,0.82
2023-04-17T08:52:52.110Z,0.82
2023-04-17T08:55:21.187Z,0.93
2023-04-17T08:58:01.161Z,0.60
2023-04-17T09:00:31.472Z,0.50
2023-04-17T09:03:01.133Z,0.75
2023-04-17T09:05:30.644Z,1.13
2023-04-17T09:08:21.293Z,1.00
2023-04-17T09:10:49.643Z,0.73
2023-04-17T09:13:19.271Z,1.10
2023-04-17T09:16:03.155Z,0.82
2023-04-17T09:18:32.733Z,0.80
2023-04-17T09:21:01.461Z,1.45
2023-04-17T09:23:31.636Z,1.30
2023-04-17T09:26:11.377Z,1.38
2023-04-17T09:28:40.081Z,1.02
2023-04-17T09:31:26.355Z,1.08
2023-04-17T09:33:58.073Z,1.30
2023-04-17T09:36:27.599Z,1.27
2023-04-17T09:38:55.357Z,1.10
2023-04-17T09:41:28.175Z,1.38
2023-04-17T09:44:01.031Z,1.23
2023-04-17T09:46:38.936Z,1.10
2023-04-17T09:49:16.007Z,1.20
2023-04-17T09:51:43.635Z,1.10
2023-04-17T09:54:12.392Z,1.02
2023-04-17T09:56:41.278Z,1.65
2023-04-17T09:59:10.057Z,1.15
2023-04-17T10:01:38.289Z,1.20
2023-04-17T10:04:06.329Z,1.35
2023-04-17T10:06:35.973Z,1.20
2023-04-17T10:09:07.986Z,1.50
2023-04-17T10:11:38.220Z,1.38
2023-04-17T10:14:17.314Z,1.20
2023-04-17T10:16:44.879Z,1.27
2023-04-17T10:19:37.745Z,1.23
2023-04-17T10:22:20.433Z,1.00
2023-04-17T10:24:52.818Z,0.65
2023-04-17T10:27:26.828Z,0.70
2023-04-17T10:30:02.683Z,0.73
2023-04-17T10:32:31.505Z,0.52
2023-04-17T10:35:23.140Z,0.65
2023-04-17T10:37:53.421Z,0.63
2023-04-17T10:40:23.647Z,0.68
2023-04-17T10:43:18.016Z,0.60
2023-04-17T10:46:10.119Z,0.52
2023-04-17T10:48:53.188Z,2.28
2023-04-17T10:51:21.842Z,0.75
2023-04-17T10:53:53.310Z,1.17
2023-04-17T10:56:35.548Z,0.43
2023-04-17T10:59:05.300Z,0.63
2023-04-17T11:01:42.787Z,0.65
2023-04-17T11:04:11.632Z,0.65
2023-04-17T11:06:40.669Z,0.68
2023-04-17T11:09:10.635Z,0.77
2023-04-17T11:11:44.741Z,0.77
2023-04-17T11:14:17.957Z,0.60
2023-04-17T11:16:48.606Z,0.43
2023-04-17T11:19:23.937Z,0.57
2023-04-17T11:21:53.715Z,0.75
2023-04-17T11:24:25.734Z,7.10
2023-04-17T11:26:53.987Z,4.05
2023-04-17T11:29:23.252Z,0.80
2023-04-17T11:31:56.577Z,0.75
2023-04-17T11:34:26.837Z,0.80
2023-04-17T11:36:56.650Z,0.52
2023-04-17T11:39:25.978Z,1.10
2023-04-17T11:41:53.845Z,0.50
2023-04-17T11:44:21.631Z,0.63
2023-04-17T11:46:58.508Z,1.08
2023-04-17T11:49:37.439Z,0.70
2023-04-17T11:52:05.694Z,1.08
2023-04-17T11:54:38.188Z,0.70
2023-04-17T11:57:11.846Z,0.93
2023-04-17T11:59:42.242Z,1.10
2023-04-17T12:02:12.317Z,0.80
2023-04-17T12:04:40.778Z,0.90
2023-04-17T12:07:20.776Z,0.80
2023-04-17T12:09:56.976Z,1.10
2023-04-17T12:12:24.582Z,0.90
2023-04-17T12:14:52.271Z,0.77
2023-04-17T12:17:19.714Z,0.55
2023-04-17T12:19:47.323Z,1.10
2023-04-17T12:22:14.885Z,1.15
2023-04-17T12:24:42.494Z,0.90
2023-04-17T12:27:09.936Z,4.28
2023-04-17T12:32:10.970Z,1.02
2023-04-17T12:34:38.637Z,1.10
2023-04-17T12:37:06.329Z,9.20
2023-04-17T12:39:34.067Z,1.70
2023-04-17T12:42:01.505Z,2.28
2023-04-17T12:44:29.186Z,1.20
2023-04-17T12:46:56.617Z,1.10
2023-04-17T12:49:24.248Z,1.48
2023-04-17T12:51:51.909Z,1.02
2023-04-17T12:54:19.434Z,1.55
2023-04-17T12:56:46.906Z,1.27
2023-04-17T12:59:14.429Z,1.20
2023-04-17T13:01:42.566Z,1.20
2023-04-17T13:04:10.553Z,1.40
2023-04-17T13:06:38.241Z,1.20
2023-04-17T13:09:06.259Z,1.40
2023-04-17T13:11:33.690Z,1.70
2023-04-17T13:14:01.055Z,1.23
2023-04-17T13:16:28.582Z,1.83
2023-04-17T13:18:56.201Z,1.70
2023-04-17T13:21:23.849Z,1.88
2023-04-17T13:23:51.354Z,1.85
2023-04-17T13:26:20.391Z,4.30
2023-04-17T13:28:47.935Z,1.48
2023-04-17T13:31:15.526Z,2.20
2023-04-17T13:33:44.990Z,2.17
2023-04-17T13:36:12.663Z,2.45
2023-04-17T13:38:40.113Z,2.03
2023-04-17T13:41:07.833Z,2.92
2023-04-17T13:43:35.427Z,2.08
2023-04-17T13:46:03.000Z,1.90
2023-04-17T13:48:30.644Z,1.90
2023-04-17T13:50:57.983Z,2.30
2023-04-17T13:53:25.449Z,4.22
2023-04-17T13:55:53.029Z,2.45
2023-04-17T13:58:20.725Z,2.22
2023-04-17T14:00:48.338Z,3.35
2023-04-17T14:03:16.097Z,3.45
2023-04-17T14:05:44.010Z,2.55
2023-04-17T14:08:11.725Z,3.40
2023-04-17T14:10:39.183Z,6.72
2023-04-17T14:13:07.198Z,3.42
2023-04-17T14:15:34.740Z,4.05
2023-04-17T14:18:02.154Z,4.70
2023-04-17T14:20:29.565Z,4.47
2023-04-17T14:22:57.169Z,4.65
2023-04-17T14:25:24.558Z,5.28
2023-04-17T14:27:52.502Z,5.40
2023-04-17T14:30:20.001Z,5.07
2023-04-17T14:32:48.050Z,5.60
2023-04-17T14:35:15.612Z,5.75
2023-04-17T14:37:43.054Z,5.05
2023-04-17T14:40:10.961Z,6.18
2023-04-17T14:42:51.218Z,7.35
2023-04-17T14:45:21.780Z,5.75
2023-04-17T14:47:49.735Z,6.82
2023-04-17T14:50:17.697Z,7.20
2023-04-17T14:52:45.340Z,7.72
2023-04-17T14:55:13.252Z,8.48
2023-04-17T14:57:40.933Z,7.00
2023-04-17T15:00:08.698Z,7.85
2023-04-17T15:02:39.098Z,7.47
2023-04-17T15:05:07.703Z,7.43
2023-04-17T15:07:35.696Z,6.80
2023-04-17T15:10:04.758Z,7.55
2023-04-17T15:12:32.116Z,7.35
2023-04-17T15:14:59.516Z,6.53
2023-04-17T15:17:26.807Z,7.10
2023-04-17T15:19:57.223Z,6.47
2023-04-17T15:22:26.795Z,5.70
2023-04-17T15:24:54.075Z,7.15
2023-04-17T15:27:21.554Z,5.68
2023-04-17T15:29:49.054Z,9.02
2023-04-17T15:32:16.814Z,8.23
2023-04-17T15:34:44.306Z,6.43
2023-04-17T15:37:13.180Z,7.25
2023-04-17T15:39:40.682Z,7.10
2023-04-17T15:42:09.560Z,5.93
2023-04-17T15:44:37.700Z,8.15
2023-04-17T15:47:06.894Z,7.20
2023-04-17T15:49:34.454Z,7.50
2023-04-17T15:52:02.112Z,6.82
2023-04-17T15:54:29.475Z,6.72
2023-04-17T15:56:57.054Z,7.47
2023-04-17T15:59:24.573Z,7.45
2023-04-17T16:01:53.337Z,7.03
2023-04-17T16:04:20.996Z,7.60
2023-04-17T16:06:48.716Z,7.38
2023-04-17T16:09:19.864Z,7.25
2023-04-17T16:11:48.477Z,6.88
2023-04-17T16:14:16.107Z,7.07
2023-04-17T16:16:43.450Z,6.93
2023-04-17T16:19:11.243Z,7.80
2023-04-17T16:21:38.987Z,8.15
2023-04-17T16:24:06.556Z,6.63
2023-04-17T16:26:34.224Z,8.23
2023-04-17T16:29:01.738Z,7.00
2023-04-17T16:31:29.534Z,7.70
2023-04-17T16:33:56.950Z,6.32
2023-04-17T16:36:24.412Z,7.05
2023-04-17T16:38:52.043Z,6.72
2023-04-17T16:41:20.365Z,6.60
2023-04-17T16:43:47.816Z,6.28
2023-04-17T16:46:23.793Z,6.00
2023-04-17T16:48:56.322Z,5.47
2023-04-17T16:51:23.714Z,5.40
2023-04-17T16:53:51.674Z,5.43
2023-04-17T16:56:19.264Z,6.28
2023-04-17T16:58:46.882Z,5.97
2023-04-17T17:01:14.535Z,5.45
2023-04-17T17:03:43.295Z,6.22
2023-04-17T17:06:10.750Z,5.43
2023-04-17T17:08:38.910Z,5.90
2023-04-17T17:11:06.446Z,5.10
2023-04-17T17:13:33.720Z,5.13
2023-04-17T17:16:01.329Z,5.05
2023-04-17T17:18:28.694Z,5.90
2023-04-17T17:20:58.527Z,4.57
2023-04-17T17:23:26.846Z,5.78
2023-04-17T17:25:54.444Z,5.40
2023-04-17T17:28:21.906Z,5.95
2023-04-17T17:30:49.640Z,5.15
2023-04-17T17:33:17.259Z,7.32
2023-04-17T17:35:44.634Z,6.50
2023-04-17T17:38:12.286Z,6.88
2023-04-17T17:40:39.917Z,6.93
2023-04-17T17:43:07.294Z,6.43
2023-04-17T17:45:34.620Z,6.72
2023-04-17T17:48:01.982Z,6.65
2023-04-17T17:50:29.358Z,6.93
2023-04-17T17:52:58.790Z,7.38
2023-04-17T17:55:26.745Z,6.45
2023-04-17T17:57:54.430Z,7.20
2023-04-17T18:00:22.028Z,7.22
2023-04-17T18:02:49.652Z,8.00
2023-04-17T18:05:17.473Z,7.13
2023-04-17T18:07:45.001Z,7.75
2023-04-17T18:10:12.610Z,7.40
2023-04-17T18:12:39.836Z,7.47
2023-04-17T18:15:07.803Z,7.93
2023-04-17T18:17:35.115Z,8.52
2023-04-17T18:20:02.517Z,9.02
2023-04-17T18:22:29.790Z,8.90
2023-04-17T18:24:57.298Z,8.73
2023-04-17T18:27:24.554Z,9.38
2023-04-17T18:29:51.755Z,9.13
2023-04-17T18:32:18.980Z,8.27
2023-04-17T18:34:49.096Z,9.40
2023-04-17T18:37:18.118Z,9.27
2023-04-17T18:39:45.605Z,10.73
2023-04-17T18:42:13.244Z,9.50
2023-04-17T18:44:41.663Z,9.38
2023-04-17T18:47:09.135Z,9.60
2023-04-17T18:49:36.368Z,9.68
2023-04-17T18:52:05.071Z,8.45
2023-04-17T18:54:32.527Z,9.13
2023-04-17T18:56:59.808Z,8.90
2023-04-17T18:59:28.143Z,9.25
2023-04-17T19:01:55.731Z,9.52
2023-04-17T19:04:23.263Z,8.45
2023-04-17T19:06:50.916Z,9.07
2023-04-17T19:09:18.511Z,7.60
2023-04-17T19:11:46.049Z,7.70
2023-04-17T19:14:14.005Z,7.20
2023-04-17T19:16:41.676Z,7.75
2023-04-17T19:19:11.094Z,7.30
2023-04-17T19:21:38.707Z,8.02
2023-04-17T19:24:07.128Z,6.88
2023-04-17T19:26:34.518Z,7.78
2023-04-17T19:29:03.200Z,7.78
2023-04-17T19:31:31.466Z,8.25
2023-04-17T19:33:59.548Z,8.23
2023-04-17T19:36:28.107Z,6.85
2023-04-17T19:38:59.133Z,7.63
2023-04-17T19:41:28.094Z,7.28
2023-04-17T19:43:55.626Z,7.32
2023-04-17T19:46:24.173Z,6.85
2023-04-17T19:48:52.325Z,6.65
2023-04-17T19:51:19.993Z,6.25
2023-04-17T19:53:53.083Z,5.95
2023-04-17T19:56:21.051Z,6.90
2023-04-17T19:58:48.456Z,6.22
2023-04-17T20:01:16.396Z,6.65
2023-04-17T20:03:45.357Z,6.55
2023-04-17T20:06:13.915Z,6.38
2023-04-17T20:08:41.523Z,6.70
2023-04-17T20:11:11.827Z,6.82
2023-04-17T20:13:39.612Z,6.25
2023-04-17T20:16:07.388Z,5.90
2023-04-17T20:18:36.944Z,5.88
2023-04-17T20:21:06.410Z,6.45
2023-04-17T20:23:33.829Z,7.45
2023-04-17T20:26:03.112Z,6.17
2023-04-17T20:28:30.674Z,6.38
2023-04-17T20:30:58.401Z,5.72
2023-04-17T20:33:25.742Z,6.00
2023-04-17T20:35:53.189Z,6.75
2023-04-17T20:38:20.521Z,6.10
2023-04-17T20:40:48.073Z,6.78
2023-04-17T20:43:16.786Z,6.40
2023-04-17T20:45:44.656Z,6.78
2023-04-17T20:48:12.193Z,7.15
2023-04-17T20:50:39.532Z,7.47
2023-04-17T20:53:06.750Z,6.40
2023-04-17T20:55:35.981Z,6.55
2023-04-17T20:58:03.283Z,6.30
2023-04-17T21:00:30.951Z,6.32
2023-04-17T21:02:58.281Z,6.50
2023-04-17T21:05:26.087Z,5.55
2023-04-17T21:07:54.324Z,7.40
2023-04-17T21:10:21.809Z,6.47
2023-04-17T21:12:49.050Z,6.60
2023-04-17T21:15:16.406Z,5.43
2023-04-17T21:17:46.811Z,6.73
2023-04-17T21:20:14.778Z,6.37
2023-04-17T21:22:42.081Z,7.45
2023-04-17T21:25:09.735Z,6.77
2023-04-17T21:27:37.144Z,7.00
2023-04-17T21:30:07.561Z,7.00
2023-04-17T21:32:35.085Z,6.40
2023-04-17T21:35:03.261Z,7.13
2023-04-17T21:37:30.502Z,6.73
2023-04-17T21:39:57.874Z,6.63
2023-04-17T21:42:26.078Z,6.90
2023-04-17T21:44:53.404Z,6.17
2023-04-17T21:47:21.066Z,6.43
2023-04-17T21:49:49.283Z,6.47
2023-04-17T21:52:16.918Z,7.17
2023-04-17T21:54:44.271Z,7.20
2023-04-17T21:57:11.826Z,6.83
2023-04-17T21:59:39.828Z,6.23
2023-04-17T22:02:07.229Z,6.47
2023-04-17T22:04:34.763Z,6.03
2023-04-17T22:07:02.183Z,5.93
2023-04-17T22:09:29.445Z,6.37
2023-04-17T22:11:58.725Z,7.13
2023-04-17T22:14:26.095Z,6.70
2023-04-17T22:16:53.325Z,7.17
2023-04-17T22:19:20.733Z,6.43
2023-04-17T22:21:47.927Z,7.23
2023-04-17T22:24:15.569Z,5.33
2023-04-17T22:26:42.894Z,6.67
2023-04-17T22:29:10.106Z,7.03
2023-04-17T22:31:37.850Z,7.40
2023-04-17T22:34:05.117Z,6.90
2023-04-17T22:36:32.431Z,6.60
2023-04-17T22:38:59.769Z,6.57
2023-04-17T22:41:27.150Z,6.47
2023-04-17T22:43:54.543Z,6.60
2023-04-17T22:46:21.955Z,6.60
2023-04-17T22:48:49.669Z,8.07
2023-04-17T22:51:17.750Z,8.97
2023-04-17T22:53:45.177Z,8.30
2023-04-17T22:56:13.608Z,8.13
2023-04-17T22:58:41.046Z,7.33
2023-04-17T23:01:08.663Z,7.43
2023-04-17T23:03:36.020Z,7.13
2023-04-17T23:06:03.879Z,6.70
2023-04-17T23:08:31.228Z,6.53
2023-04-17T23:10:59.794Z,7.23
2023-04-17T23:13:28.448Z,6.50
2023-04-17T23:15:55.925Z,7.07
2023-04-17T23:18:23.666Z,8.30
2023-04-17T23:20:51.210Z,7.97
2023-04-17T23:23:19.182Z,7.37
2023-04-17T23:25:46.410Z,6.57
2023-04-17T23:28:13.957Z,6.73
2023-04-17T23:30:41.589Z,7.17
2023-04-17T23:33:09.845Z,7.03
2023-04-17T23:35:37.208Z,6.97
2023-04-17T23:38:04.560Z,6.77
2023-04-17T23:40:32.646Z,6.73
2023-04-17T23:43:00.117Z,6.80
2023-04-17T23:45:27.578Z,7.93
2023-04-17T23:47:55.309Z,7.37
2023-04-17T23:50:22.737Z,7.07
2023-04-17T23:52:50.268Z,6.47
2023-04-17T23:55:17.531Z,7.93
2023-04-17T23:57:44.909Z,6.60
